Tiempo atmosférico en la estación meteorológica de Autilla del Pino, Palencia (874 m.)



Fecha
DESCASC
Temp. máxima en grados centígrados (hora)
DESCASC
Temp. mínima en grados centígrados (hora)
DESCASC
Temp. media en grados centígrados
DESCASC
Racha de viento máxima en m/sg (hora)
DESCASC
Velocidad máxima media en intervalos de 10 minutos(hora)
DESCASC
Precipitaciones diarias en mm
DESCASC
Precipitaciones de 00:00 a 06:00 en mm
DESCASC
Precipitaciones de 06:00 a 12:00 en mm
DESCASC
Precipitaciones de 12:00 a 18:00 en mm
DESCASC
Precipitaciones de 18:00 a 24:00 en mm
DESCASC
11-12-2019 7.2 (14:20) -0.2 (04:10) 3.5 14.44 (22:20) 10 (22:20) 0.5 0 0.5 0 0
08-12-2019 7.3 (18:50) -0.9 (-00:0) 3.2 6.67 (16:30) 5.28 (16:20) 0.9 0 0 0.9 0
07-12-2019 8.5 (16:20) -1.4 (-00:0) 3.6 4.17 (23:59) 3.61 (23:59) 0 0 0 0 0
06-12-2019 10 (16:00) -0.2 (00:00) 4.9 5.56 (00:30) 5 (01:00) 0 0 0 0 0
05-12-2019 9.2 (14:50) 2 (00:00) 5.6 19.44 (08:50) 10.28 (04:20) 0 0 0 0 0
04-12-2019 8.7 (16:10) -1.3 (07:30) 3.7 13.33 (07:00) 10 (21:20) 0 0 0 0 0
03-12-2019 4.9 (13:30) -1.8 (-00:0) 1.6 11.67 (11:30) 8.89 (11:40) 0 0 0 0 0
02-12-2019 7.2 (13:30) 0.5 (00:00) 3.8 15.83 (15:30) 11.39 (20:40) 0 0 0 0 0
01-12-2019 5.5 (16:40) 2.5 (00:00) 4 8.61 (04:00) 6.67 (00:40) 3.2 0.8 1.7 0.7 0
30-11-2019 12.4 (13:00) 2.4 (00:00) 7.4 18.33 (03:30) 12.78 (13:00) 5 1.2 0 3.8 0
29-11-2019 12.5 (14:50) 6.2 (00:00) 9.3 13.61 (00:20) 10.28 (00:10) 0.8 0 0 0 0.8
28-11-2019 10.5 (15:50) 7.1 (05:30) 8.8 25.56 (15:20) 11.94 (07:50) 1.1 0 0 0.2 0.9
27-11-2019 8.7 (13:00) 5.4 (00:00) 7 15.83 (05:00) 12.5 (04:50) 0.1 0.1 0 0 0
26-11-2019 13.4 (15:00) 6.1 (00:00) 9.7 20 (21:10) 14.72 (21:10) 0.5 0 0.2 0.1 0.2
25-11-2019 12.1 (13:30) 5.4 (22:40) 8.8 12.5 (10:40) 9.44 (12:10) 0 0 0 0 0
24-11-2019 6.8 (15:30) 1.3 (00:00) 4.1 12.78 (23:00) 8.61 (21:40) 0 0 0 0 0
23-11-2019 9 (14:30) 2.2 (00:00) 5.6 20.28 (02:20) 14.72 (02:10) 0 0 0 0 0
22-11-2019 11.3 (14:30) 3.9 (00:00) 7.6 19.17 (14:30) 13.61 (14:30) 5.2 0.1 3 2.1 0
21-11-2019 8.9 (15:50) 1.7 (00:00) 5.3 10 (14:20) 7.22 (14:20) 0 0 0 0 0
20-11-2019 5.2 (14:10) 1.8 (03:40) 3.5 12.78 (22:00) 6.67 (14:20) 2.2 0 0.3 1.8 0.1
19-11-2019 6.2 (13:50) -1.3 (-00:0) 2.4 5 (14:30) 3.61 (14:30) 0 0 0 0 0
18-11-2019 9.4 (16:00) -2 (-00:0) 3.7 6.11 (00:30) 5.28 (00:30) 0 0 0 0 0
17-11-2019 8.5 (16:40) 0.6 (00:00) 4.6 12.22 (13:50) 8.89 (14:10) 0.3 0 0.3 0 0
16-11-2019 6.4 (16:00) -2.8 (-00:0) 1.8 12.78 (18:10) 8.33 (14:00) 0 0 0 0 0
15-11-2019 6.2 (15:10) -1 (-00:0) 2.6 13.89 (14:00) 10 (12:30) 0 0 0 0 0
14-11-2019 5.9 (02:20) -0.2 (00:00) 2.9 25.83 (10:10) 13.06 (02:30) 4.4 2 0 2.4 0
13-11-2019 12.3 (14:00) 5.2 (00:00) 8.8 16.67 (00:40) 12.78 (02:00) 1.3 1.3 0 0 0
12-11-2019 9.4 (13:20) 0.6 (00:00) 5 15.83 (23:50) 11.39 (23:50) 1.2 0 0 0.1 1.1

Gráficas

Temp. máximas Temp. mínimas Temp. medias Precipitaciones Rachas de viento máximas Velocidades máximas media en intervalos de 10 minutos

Datos horarios

Fecha y hora oficial Temperatura (ºC) Velocidad del viento (km/h) Dirección del viento Racha (km/h) Dirección de racha Precipitación (mm) Presión (hPa) Tendencia (hPa) Humedad (%)
2019-12-11 23:00:00 2.2 32 Oeste 52 Oeste 0 -- -- 90
2019-12-11 22:00:00 2.4 35 Oeste 46 Oeste 0 -- -- 88
2019-12-11 21:00:00 2.7 35 Oeste -- -- 0 -- -- 81
2019-12-11 20:00:00 3.5 18 Sudoeste 35 Oeste 0 -- -- 72
2019-12-11 19:00:00 4.2 27 Oeste 42 Oeste 0 -- -- 62
2019-12-11 18:00:00 4 28 Oeste 42 Oeste 0 -- -- 65
2019-12-11 17:00:00 5 32 Oeste 44 Oeste 0 -- -- 61
2019-12-11 16:00:00 6.1 35 Noroeste 46 Oeste 0 -- -- 59
2019-12-11 15:00:00 6.6 33 Noroeste 41 Noroeste 0 -- -- 58
2019-12-11 14:00:00 6.7 25 Noroeste 32 Noroeste 0 -- -- 70
2019-12-11 13:00:00 6.2 22 Noroeste 30 Noroeste 0 -- -- 79
2019-12-11 12:00:00 4.2 18 Noroeste 30 Noroeste 0 -- -- 95
2019-12-11 11:00:00 2.3 15 Oeste 29 Oeste 0 -- -- 97
2019-12-11 10:00:00 2.1 22 Oeste 32 Oeste 0 -- -- 97
2019-12-11 09:00:00 1.9 21 Oeste 33 Oeste 0.2 -- -- 95
2019-12-11 08:00:00 2.3 14 Oeste 20 Oeste 0.2 -- -- 92
2019-12-11 07:00:00 1.6 8 Oeste 17 Sudoeste 0.1 -- -- 92
2019-12-11 06:00:00 1 13 Sudoeste 17 Sudoeste 0 -- -- 97
2019-12-11 05:00:00 0 11 Sudoeste 15 Sudoeste 0 -- -- 97
2019-12-11 04:00:00 0.2 6 Sudoeste 18 Oeste 0 -- -- 96
2019-12-11 03:00:00 0.5 12 Sudoeste 17 Sudoeste 0 -- -- 96
2019-12-11 02:00:00 0.6 15 Sudoeste 21 Sudoeste 0 -- -- 94
2019-12-11 01:00:00 0.4 12 Sudoeste 16 Sudoeste 0 -- -- 91
2019-12-11 00:00:00 0.8 14 Sudoeste 16 Sudoeste 0 -- -- 89
2019-12-10 23:00:00 1.2 12 Sudoeste 17 Sudoeste 0 -- -- 88
2019-12-10 22:00:00 1.4 15 Sudoeste 18 Sudoeste 0 -- -- 90
2019-12-10 21:00:00 1.6 8 Sudoeste 10 Oeste 0 -- -- 95
2019-12-10 20:00:00 1.9 7 Oeste 17 Sudoeste 0 -- -- 92
2019-12-10 19:00:00 3.2 15 Sudoeste 17 Sudoeste 0 -- -- 87
2019-12-10 18:00:00 4 10 Sudoeste 12 Sudoeste 0 -- -- 84
2019-12-10 17:00:00 5.1 7 Sur 10 Sur 0 -- -- 82
2019-12-10 16:00:00 5.6 6 Sudoeste 12 Sudoeste 0 -- -- 85
2019-12-10 15:00:00 5.8 8 Sudoeste 18 Sur 0 -- -- 82
2019-12-10 14:00:00 5.7 10 Sur 14 Sur 0 -- -- 90
2019-12-10 13:00:00 3.8 8 Sur 12 Sur 0 -- -- 98
2019-12-10 12:00:00 2.9 0 Calma 6 Sudeste 0 -- -- 98
2019-12-10 11:00:00 -0.5 3 Sudoeste 6 Noroeste 0 -- -- 98
2019-12-10 10:00:00 -2.6 6 Noroeste 10 Noroeste 0 -- -- 97
2019-12-10 09:00:00 -2.9 6 Sudoeste 9 Sudeste 0 -- -- 97
2019-12-10 08:00:00 -1.5 7 Sudoeste 14 Sudoeste 0 -- -- 98
2019-12-10 07:00:00 -2.2 12 Sudoeste 13 Sudoeste 0 -- -- 97
2019-12-10 06:00:00 -2.3 7 Sudoeste 9 Sudoeste 0 -- -- 97
2019-12-10 05:00:00 -0.2 4 Sudoeste 7 Sur 0 -- -- 97
2019-12-10 04:00:00 1.4 4 Sudoeste 9 Sur 0 -- -- 97
2019-12-10 03:00:00 0.1 6 Sudoeste 8 Sudoeste 0 -- -- 97
2019-12-10 02:00:00 0.9 6 Sudeste 7 Sudeste 0 -- -- 97
2019-12-10 01:00:00 1.9 4 Sudeste 10 Sudeste 0 -- -- 97
2019-12-10 00:00:00 1.1 6 Sudoeste 7 Sudoeste 0 -- -- 97
2019-12-09 23:00:00 2 4 Sudoeste 6 Este 0 -- -- 96
2019-12-09 22:00:00 2.5 4 Sudeste 7 Sudeste 0 -- -- 94
2019-12-09 21:00:00 2.6 5 Oeste 6 Noroeste 0 -- -- 92
2019-12-09 20:00:00 4.7 0 Calma 7 Este 0 -- -- 88
2019-12-09 19:00:00 4.4 6 Sudeste 11 Este 0 -- -- 85
2019-12-09 18:00:00 5.2 3 Sudeste 5 Sudeste 0 -- -- 82
2019-12-09 17:00:00 6.7 0 Calma 6 Noroeste 0 -- -- 75
2019-12-09 16:00:00 6.9 4 Oeste 10 Oeste 0 -- -- 75
2019-12-09 15:00:00 7.3 6 Oeste 19 Oeste 0 -- -- 74
2019-12-09 14:00:00 6.3 14 Oeste 21 Oeste 0 -- -- 84
2019-12-09 13:00:00 5.3 15 Oeste 22 Oeste 0 -- -- 88
2019-12-09 12:00:00 4.5 16 Noroeste 21 Noroeste 0 -- -- 94
2019-12-09 11:00:00 3.7 10 Noroeste 15 Noroeste 0 -- -- 97
2019-12-09 10:00:00 2.5 5 Noroeste 19 Sudoeste 0 -- -- 97
2019-12-09 09:00:00 1.1 14 Sudoeste 19 Sudoeste 0 -- -- 97
2019-12-09 08:00:00 2.4 17 Oeste 26 Oeste 0 -- -- 98
2019-12-09 07:00:00 2.7 22 Oeste 27 Oeste 0 -- -- 98
2019-12-09 06:00:00 3.2 18 Oeste 26 Oeste 0 -- -- 98
2019-12-09 05:00:00 2.1 17 Oeste 25 Oeste 0 -- -- 98
2019-12-09 04:00:00 2.4 21 Oeste 30 Noroeste 0 -- -- 98
2019-12-09 03:00:00 2.8 21 Oeste 31 Oeste 0 -- -- 98
2019-12-09 02:00:00 3.7 20 Oeste 26 Oeste 0 -- -- 98
2019-12-09 01:00:00 4.4 15 Oeste 20 Oeste 0 -- -- 98
2019-12-09 00:00:00 5.2 13 Noroeste 18 Noroeste 0 -- -- 98
2019-12-08 23:00:00 5.3 8 Noroeste 13 Noroeste 0 -- -- 98
2019-12-08 22:00:00 5.2 9 Noroeste 19 Noroeste 0 -- -- 98
2019-12-08 21:00:00 6 16 Noroeste 22 Noroeste 0 -- -- 98
2019-12-08 20:00:00 6.4 15 Noroeste 19 Noroeste 0 -- -- 98
2019-12-08 19:00:00 7.2 14 Noroeste 23 Oeste 0 -- -- 98
2019-12-08 18:00:00 7.1 14 Oeste 20 Oeste 0 -- -- 98
2019-12-08 17:00:00 6.8 16 Oeste 24 Noroeste 0 -- -- 98
2019-12-08 16:00:00 6.9 14 Oeste 21 Oeste 0 -- -- 98
2019-12-08 15:00:00 6.9 15 Oeste 22 Oeste 0 -- -- 98
2019-12-08 14:00:00 5.5 10 Sudoeste 14 Oeste 0.2 -- -- 98
2019-12-08 13:00:00 5.7 12 Oeste 14 Oeste 0.7 -- -- 98
2019-12-08 12:00:00 4.4 10 Sudoeste 15 Sudoeste 0 -- -- 98
2019-12-08 11:00:00 3.6 12 Sudoeste 17 Sudoeste 0 -- -- 98
2019-12-08 10:00:00 2.6 12 Sudoeste 18 Sudoeste 0 -- -- 98
2019-12-08 09:00:00 1.7 15 Sudoeste 19 Sudoeste 0 -- -- 98
2019-12-08 08:00:00 1.3 7 Sudoeste 10 Sudoeste 0 -- -- 98
2019-12-08 07:00:00 0.6 2 Sur 9 Noroeste 0 -- -- 98
2019-12-08 06:00:00 0.3 5 Oeste 14 Sudoeste 0 -- -- 98
2019-12-08 05:00:00 0.2 11 Sudoeste 23 Sur 0 -- -- 97
2019-12-08 04:00:00 -0.7 11 Sur 17 Sur 0 -- -- 98
2019-12-08 03:00:00 -0.3 9 Sudoeste 13 Sudoeste 0 -- -- 97
2019-12-08 02:00:00 0.1 6 Sudoeste 8 Sudoeste 0 -- -- 98
2019-12-08 01:00:00 0.1 5 Sudoeste 15 Sur 0 -- -- 98
2019-12-08 00:00:00 1.7 13 Sur 15 Sur 0 -- -- 98
2019-12-07 23:00:00 2.3 7 Sur 10 Sur 0 -- -- 98
2019-12-07 22:00:00 3 0 Calma 6 Norte 0 -- -- 97
2019-12-07 21:00:00 0.8 4 Norte 9 Norte 0 -- -- 96
2019-12-07 20:00:00 4.2 6 Sudoeste 10 Sudoeste 0 -- -- 95
2019-12-07 19:00:00 3.9 4 Sudeste 6 Sudeste 0 -- -- 95
2019-12-07 18:00:00 4.7 5 Este 9 Sudeste 0 -- -- 89
2019-12-07 17:00:00 7.3 3 Sudeste 7 Sudeste 0 -- -- 88
2019-12-07 16:00:00 7.5 2 Norte 9 Noroeste 0 -- -- 87
2019-12-07 15:00:00 7 4 Noroeste 8 Noroeste 0 -- -- 91
2019-12-07 14:00:00 7.4 5 Oeste 9 Sudoeste 0 -- -- 88
2019-12-07 13:00:00 5.5 2 Sudeste 9 Norte 0 -- -- 94
2019-12-07 12:00:00 6.3 7 Sudoeste 10 Sudoeste 0 -- -- 93
2019-12-07 11:00:00 5.3 2 Sudoeste 6 Sur 0 -- -- 99
2019-12-07 10:00:00 0.8 4 Sudoeste 11 Sudoeste 0 -- -- 98
2019-12-07 09:00:00 -1.3 9 Sudoeste 13 Sudoeste 0 -- -- 98
2019-12-07 08:00:00 -0.8 9 Sudoeste 13 Sudoeste 0 -- -- 98
2019-12-07 07:00:00 0 11 Sudoeste 13 Sudoeste 0 -- -- 98
2019-12-07 06:00:00 0.6 10 Sudoeste 11 Sudoeste 0 -- -- 98
2019-12-07 05:00:00 1.6 9 Sudoeste 12 Sur 0 -- -- 97
2019-12-07 04:00:00 2.4 9 Sur 10 Sur 0 -- -- 97
2019-12-07 03:00:00 3.1 8 Sudoeste 11 Sudoeste 0 -- -- 97
2019-12-07 02:00:00 3 0 Calma 5 Oeste 0 -- -- 97
2019-12-07 01:00:00 2.9 2 Sur 5 Sudoeste 0 -- -- 97
2019-12-07 00:00:00 3.3 5 Sudoeste 8 Noroeste 0 -- -- 97
2019-12-06 23:00:00 2.8 5 Oeste 10 Oeste 0 -- -- 95
2019-12-06 22:00:00 2.7 5 Oeste 7 Sudoeste 0 -- -- 94
2019-12-06 21:00:00 4.3 5 Sudoeste 7 Noroeste 0 -- -- 95
2019-12-06 20:00:00 2.9 8 Noroeste 10 Noroeste 0 -- -- 93
2019-12-06 19:00:00 4.2 5 Oeste 7 Noroeste 0 -- -- 89
2019-12-06 18:00:00 6.5 4 Sudoeste 6 Sudoeste 0 -- -- 82
2019-12-06 17:00:00 7.6 6 Sudoeste 9 Oeste 0 -- -- 76
2019-12-06 16:00:00 9.7 6 Oeste 9 Oeste 0 -- -- 65
2019-12-06 15:00:00 9.2 6 Oeste 15 Oeste 0 -- -- 66
2019-12-06 14:00:00 8.3 6 Oeste 13 Oeste 0 -- -- 74
2019-12-06 13:00:00 8.7 4 Oeste 8 Sudoeste 0 -- -- 69
2019-12-06 12:00:00 6.9 4 Sudeste 12 Sudeste 0 -- -- 76
2019-12-06 11:00:00 4.4 7 Este 13 Sudeste 0 -- -- 85
2019-12-06 10:00:00 2.9 11 Este 15 Sudeste 0 -- -- 93
2019-12-06 09:00:00 0.7 12 Este 17 Sudeste 0 -- -- 96
2019-12-06 08:00:00 0 12 Este 15 Este 0 -- -- 96
2019-12-06 07:00:00 0 11 Este 14 Este 0 -- -- 96
2019-12-06 06:00:00 0.7 13 Este 16 Este 0 -- -- 96
2019-12-06 05:00:00 0.7 14 Este 16 Este 0 -- -- 96
2019-12-06 04:00:00 0.1 12 Este 13 Este 0 -- -- 96
2019-12-06 03:00:00 0.8 9 Este 14 Este 0 -- -- 95
2019-12-06 02:00:00 1 12 Este 18 Este 0 -- -- 94
2019-12-06 01:00:00 1.8 18 Este 20 Nordeste 0 -- -- 94
2019-12-06 00:00:00 2.1 13 Nordeste 23 Este 0 -- -- 91
2019-12-05 23:00:00 3.1 17 Este 22 Este 0 -- -- 90
2019-12-05 22:00:00 3.4 13 Nordeste 19 Nordeste 0 -- -- 88
2019-12-05 21:00:00 3.8 14 Nordeste 22 Nordeste 0 -- -- 88
2019-12-05 20:00:00 4 16 Este 22 Nordeste 0 -- -- 85
2019-12-05 19:00:00 4.9 17 Nordeste 24 Nordeste 0 -- -- 78
2019-12-05 18:00:00 5.8 20 Nordeste 35 Este 0 -- -- 74
2019-12-05 17:00:00 7.6 27 Este 35 Este 0 -- -- 68
2019-12-05 16:00:00 8.2 29 Este 42 Nordeste 0 -- -- 65
2019-12-05 15:00:00 8.8 32 Este 43 Este 0 -- -- 62
2019-12-05 14:00:00 8.5 28 Este 41 Este 0 -- -- 65
2019-12-05 13:00:00 6.7 28 Este 45 Este 0 -- -- 73
2019-12-05 12:00:00 5.9 28 Este 46 Este 0 -- -- 80
2019-12-05 11:00:00 5.2 27 Este 38 Este 0 -- -- 85
2019-12-05 10:00:00 5.1 25 Nordeste 39 Este 0 -- -- 85
2019-12-05 09:00:00 5.1 19 Nordeste 70 Este 0 -- -- 85
2019-12-05 08:00:00 5.1 24 Nordeste 39 Este 0 -- -- 86
2019-12-05 07:00:00 5 21 Nordeste 36 Nordeste 0 -- -- 87
2019-12-05 06:00:00 4.9 23 Este 48 Este 0 -- -- 88
2019-12-05 05:00:00 4.7 34 Este 54 Nordeste 0 -- -- 87
2019-12-05 04:00:00 5.1 33 Nordeste 47 Este 0 -- -- 85
2019-12-05 03:00:00 5 26 Nordeste 41 Este 0 -- -- 88
2019-12-05 02:00:00 4 31 Este 40 Nordeste 0 -- -- 88
2019-12-05 01:00:00 4 24 Nordeste 42 Nordeste 0 -- -- 85
2019-12-05 00:00:00 3.8 32 Nordeste 44 Este 0 -- -- 83
2019-12-04 23:00:00 3.1 32 Este 45 Este 0 -- -- 85
2019-12-04 22:00:00 2.7 31 Este 47 Nordeste 0 -- -- 81
2019-12-04 21:00:00 3.5 30 Este 40 Este 0 -- -- 66
2019-12-04 20:00:00 3.7 30 Este 40 Este 0 -- -- 63
2019-12-04 19:00:00 4.9 18 Este 27 Nordeste 0 -- -- 65
2019-12-04 18:00:00 6.1 18 Nordeste 39 Nordeste 0 -- -- 64
2019-12-04 17:00:00 7.8 20 Nordeste 30 Nordeste 0 -- -- 66
2019-12-04 16:00:00 7.8 13 Nordeste 22 Nordeste 0 -- -- 75
2019-12-04 15:00:00 7.7 13 Nordeste 19 Nordeste 0 -- -- 72
2019-12-04 14:00:00 5.6 14 Nordeste 24 Nordeste 0 -- -- 77
2019-12-04 13:00:00 5.5 18 Nordeste 24 Nordeste 0 -- -- 77
2019-12-04 12:00:00 4.8 13 Nordeste 19 Este 0 -- -- 78
2019-12-04 11:00:00 2.6 9 Este 16 Este 0 -- -- 84
2019-12-04 10:00:00 0.2 13 Este 18 Nordeste 0 -- -- 92
2019-12-04 09:00:00 -0.4 12 Nordeste 19 Este 0 -- -- 93
2019-12-04 08:00:00 -1.1 14 Este 20 Este 0 -- -- 93
2019-12-04 07:00:00 -0.5 18 Este 48 Este 0 -- -- 92
2019-12-04 06:00:00 -0.8 17 Este 20 Este 0 -- -- 91
2019-12-04 05:00:00 -0.5 16 Este 21 Este 0 -- -- 89
2019-12-04 04:00:00 -0.1 15 Este 21 Este 0 -- -- 91
2019-12-04 03:00:00 -0.5 17 Este 21 Este 0 -- -- 91
2019-12-04 02:00:00 -0.8 14 Este 20 Este 0 -- -- 92
2019-12-04 01:00:00 -0.7 15 Este 27 Sudeste 0 -- -- 92
2019-12-04 00:00:00 -0.8 19 Este 25 Sudeste 0 -- -- 92
2019-12-03 23:00:00 -0.9 15 Este 29 Este 0 -- -- 93
2019-12-03 22:00:00 -1.4 14 Este 20 Este 0 -- -- 92
2019-12-03 21:00:00 -0.6 18 Este 27 Este 0 -- -- 89
2019-12-03 20:00:00 -0.8 16 Este 20 Este 0 -- -- 89
2019-12-03 19:00:00 -0.5 10 Este 21 Este 0 -- -- 85
2019-12-03 18:00:00 1.2 18 Este 22 Este 0 -- -- 78
2019-12-03 17:00:00 3.3 17 Este 28 Este 0 -- -- 70
2019-12-03 16:00:00 3.9 16 Este 30 Nordeste 0 -- -- 69
2019-12-03 15:00:00 3.9 19 Nordeste 31 Este 0 -- -- 70
2019-12-03 14:00:00 3.7 20 Este 37 Este 0 -- -- 70
2019-12-03 13:00:00 3 25 Este 41 Este 0 -- -- 74
2019-12-03 12:00:00 2.6 30 Este 42 Este 0 -- -- 75
2019-12-03 11:00:00 1.9 26 Este 39 Nordeste 0 -- -- 84
2019-12-03 10:00:00 1.3 28 Nordeste 38 Nordeste 0 -- -- 87
2019-12-03 09:00:00 0.7 22 Nordeste 33 Nordeste 0 -- -- 89
2019-12-03 08:00:00 0.6 23 Este 34 Este 0 -- -- 88
2019-12-03 07:00:00 0.4 27 Nordeste 42 Este 0 -- -- 86
2019-12-03 06:00:00 0.5 31 Este 40 Este 0 -- -- 86
2019-12-03 05:00:00 0.9 24 Este 34 Nordeste 0 -- -- 84
2019-12-03 04:00:00 0.5 24 Este 35 Este 0 -- -- 81
2019-12-03 03:00:00 0.2 24 Este 35 Este 0 -- -- 78
2019-12-03 02:00:00 0.4 23 Este 41 Nordeste 0 -- -- 83
2019-12-03 01:00:00 0.4 26 Este 37 Este 0 -- -- 84
2019-12-03 00:00:00 0.6 24 Este 36 Este 0 -- -- 83
2019-12-02 23:00:00 1 26 Este 37 Nordeste 0 -- -- 81
2019-12-02 22:00:00 0.8 27 Nordeste 51 Nordeste 0 -- -- 79
2019-12-02 21:00:00 1.2 35 Nordeste 51 Nordeste 0 -- -- 75
2019-12-02 20:00:00 1.6 30 Nordeste 47 Nordeste 0 -- -- 82
2019-12-02 19:00:00 2.9 32 Nordeste 47 Nordeste 0 -- -- 77
2019-12-02 18:00:00 3.2 33 Nordeste 49 Nordeste 0 -- -- 81
2019-12-02 17:00:00 4.3 31 Nordeste 45 Nordeste 0 -- -- 79
2019-12-02 16:00:00 5.4 32 Nordeste 57 Nordeste 0 -- -- 74
2019-12-02 15:00:00 5.6 34 Nordeste 49 Nordeste 0 -- -- 77
2019-12-02 14:00:00 6.6 34 Nordeste 52 Nordeste 0 -- -- 69
2019-12-02 13:00:00 5.7 35 Nordeste 46 Nordeste 0 -- -- 75
2019-12-02 12:00:00 5.5 28 Nordeste 46 Nordeste 0 -- -- 81
2019-12-02 11:00:00 4.9 27 Nordeste 41 Nordeste 0 -- -- 84
2019-12-02 10:00:00 4.4 24 Nordeste 35 Nordeste 0 -- -- 89
2019-12-02 09:00:00 3.7 23 Nordeste 32 Nordeste 0 -- -- 92
2019-12-02 08:00:00 3.1 19 Este 35 Nordeste 0 -- -- 92
2019-12-02 07:00:00 2.9 22 Nordeste 33 Nordeste 0 -- -- 93
2019-12-02 06:00:00 2.4 18 Nordeste 34 Nordeste 0 -- -- 91
2019-12-02 05:00:00 2.1 16 Nordeste 28 Nordeste 0 -- -- 91
2019-12-02 04:00:00 1.6 18 Nordeste 29 Este 0 -- -- 91
2019-12-02 03:00:00 2.1 19 Nordeste 31 Nordeste 0 -- -- 89
2019-12-02 02:00:00 2.3 22 Nordeste 35 Nordeste 0 -- -- 89
2019-12-02 01:00:00 2.9 21 Nordeste 31 Nordeste 0 -- -- 88
2019-12-02 00:00:00 3.5 21 Nordeste 31 Nordeste 0 -- -- 88
2019-12-01 23:00:00 4.1 16 Nordeste 27 Nordeste 0 -- -- 85
2019-12-01 22:00:00 4.2 15 Nordeste 30 Este 0 -- -- 88
2019-12-01 21:00:00 4.1 19 Nordeste 29 Nordeste 0 -- -- 88
2019-12-01 20:00:00 4.4 18 Nordeste 30 Nordeste 0 -- -- 87
2019-12-01 19:00:00 5.3 18 Nordeste 25 Nordeste 0 -- -- 88
2019-12-01 18:00:00 4.9 11 Nordeste 15 Nordeste 0 -- -- 92
2019-12-01 17:00:00 5.3 13 Nordeste 16 Nordeste 0 -- -- 93
2019-12-01 16:00:00 5.2 5 Este 10 Nordeste 0 -- -- 89
2019-12-01 15:00:00 5.1 8 Este 11 Sudeste 0.2 -- -- 88
2019-12-01 14:00:00 5.2 8 Sudeste 16 Sudeste 0 -- -- 88
2019-12-01 13:00:00 5 7 Sudeste 21 Sur 0.5 -- -- 92
2019-12-01 12:00:00 4.8 10 Sur 18 Sur 0.3 -- -- 94
2019-12-01 11:00:00 4.5 7 Sudeste 18 Sur 0.8 -- -- 96
2019-12-01 10:00:00 4.2 9 Sudeste 17 Sur 0.1 -- -- 95
2019-12-01 09:00:00 3.8 10 Sur 19 Sur 0.1 -- -- 95
2019-12-01 08:00:00 3.6 8 Sudeste 21 Sur 0 -- -- 95
2019-12-01 07:00:00 3.8 14 Sur 26 Sur 0.4 -- -- 95
2019-12-01 06:00:00 4 15 Sudoeste 24 Sudoeste 0.7 -- -- 95
2019-12-01 05:00:00 4 17 Sudoeste 27 Sudoeste 0.1 -- -- 96
2019-12-01 04:00:00 4.2 23 Sudoeste 31 Sudoeste 0 -- -- 96
2019-12-01 03:00:00 3.7 18 Sudoeste 22 Sudoeste 0 -- -- 96
2019-12-01 02:00:00 3.2 16 Sudoeste 22 Sudoeste 0 -- -- 95
2019-12-01 01:00:00 2.7 15 Sudoeste 29 Sudoeste 0 -- -- 95
2019-12-01 00:00:00 2.6 15 Sudoeste 24 Sudoeste 0 -- -- 95
2019-11-30 23:00:00 2.7 14 Sudoeste 21 Sudoeste 0 -- -- 95
2019-11-30 22:00:00 2.9 15 Sur 23 Sudoeste 0 -- -- 94
2019-11-30 21:00:00 5.3 21 Oeste 29 Oeste 0 -- -- 88
2019-11-30 20:00:00 5.6 23 Oeste 33 Oeste 0 -- -- 85
2019-11-30 19:00:00 5.7 21 Oeste 35 Oeste 0 -- -- 83
2019-11-30 18:00:00 6.9 26 Oeste 43 Oeste 0 -- -- 78
2019-11-30 17:00:00 7.6 21 Oeste 29 Sudoeste 0.4 -- -- 86
2019-11-30 16:00:00 7.2 19 Noroeste 40 Oeste 1.2 -- -- 95
2019-11-30 15:00:00 8.6 35 Oeste 51 Oeste 0.2 -- -- 89
2019-11-30 14:00:00 9.4 41 Oeste 58 Oeste 2 -- -- 89
2019-11-30 13:00:00 11.9 46 Sudoeste 61 Sudoeste 0 -- -- 89
2019-11-30 12:00:00 11.1 40 Sudoeste 55 Sudoeste 0 -- -- 91
2019-11-30 11:00:00 11 36 Sudoeste 52 Sudoeste 0 -- -- 92
2019-11-30 10:00:00 10.3 34 Sudoeste 46 Sudoeste 0 -- -- 94
2019-11-30 09:00:00 9.9 31 Sudoeste 45 Sudoeste 0 -- -- 95
2019-11-30 08:00:00 9.5 28 Sudoeste 38 Sudoeste 0 -- -- 95
2019-11-30 07:00:00 10 31 Sudoeste 44 Sudoeste 0 -- -- 92
2019-11-30 06:00:00 9.8 26 Sudoeste 43 Sudoeste 0 -- -- 92
2019-11-30 05:00:00 10.3 24 Sudoeste 35 Oeste 0 -- -- 92
2019-11-30 04:00:00 10.6 30 Oeste 66 Sudoeste 0 -- -- 93
2019-11-30 03:00:00 10.3 29 Oeste 38 Oeste 0.2 -- -- 97
2019-11-30 02:00:00 9.7 15 Sudoeste 19 Sudoeste 0.2 -- -- 97
2019-11-30 01:00:00 9.4 12 Sudoeste 21 Sudoeste 0.8 -- -- 97
2019-11-30 00:00:00 9.2 13 Sudoeste 19 Sudoeste 0.8 -- -- 96
2019-11-29 23:00:00 8.5 9 Sudoeste 14 Sudoeste 0 -- -- 96
2019-11-29 22:00:00 7.9 10 Sudoeste 14 Sudoeste 0 -- -- 96
2019-11-29 21:00:00 6.8 14 Sudoeste 14 Sudoeste 0 -- -- 95
2019-11-29 20:00:00 7.1 9 Sudoeste 14 Sudoeste 0 -- -- 94
2019-11-29 19:00:00 8.1 11 Sudoeste 13 Sudoeste 0 -- -- 93
2019-11-29 18:00:00 9.5 6 Oeste 13 Oeste 0 -- -- 89
2019-11-29 17:00:00 11.3 9 Oeste 18 Oeste 0 -- -- 82
2019-11-29 16:00:00 11.3 14 Oeste 23 Oeste 0 -- -- 77
2019-11-29 15:00:00 12.3 13 Oeste 20 Oeste 0 -- -- 74
2019-11-29 14:00:00 11.7 9 Noroeste 14 Noroeste 0 -- -- 79
2019-11-29 13:00:00 10.6 9 Noroeste 14 Oeste 0 -- -- 76
2019-11-29 12:00:00 11.6 8 Sudoeste 10 Oeste 0 -- -- 78
2019-11-29 11:00:00 10 4 Noroeste 12 Noroeste 0 -- -- 97
2019-11-29 10:00:00 9.1 7 Oeste 15 Oeste 0 -- -- 98
2019-11-29 09:00:00 8.5 12 Oeste 17 Oeste 0 -- -- 98
2019-11-29 08:00:00 8.2 7 Noroeste 15 Oeste 0 -- -- 98
2019-11-29 07:00:00 8.1 12 Sudoeste 16 Oeste 0 -- -- 98
2019-11-29 06:00:00 8.9 12 Oeste 24 Oeste 0 -- -- 98
2019-11-29 05:00:00 9.4 18 Oeste 27 Oeste 0 -- -- 98
2019-11-29 04:00:00 9.5 18 Oeste 30 Oeste 0 -- -- 98
2019-11-29 03:00:00 9.5 18 Oeste 35 Oeste 0 -- -- 98
2019-11-29 02:00:00 9.4 25 Oeste 46 Oeste 0 -- -- 98
2019-11-29 01:00:00 9.4 30 Oeste 49 Oeste 0 -- -- 97
2019-11-29 00:00:00 9.5 34 Oeste 49 Oeste 0 -- -- 95
2019-11-28 23:00:00 9.6 35 Oeste 48 Sudoeste 0 -- -- 96
2019-11-28 22:00:00 8.8 35 Sudoeste 46 Oeste 0.5 -- -- 96
2019-11-28 21:00:00 8.8 32 Sudoeste 43 Sudoeste 0 -- -- 95
2019-11-28 20:00:00 8.6 32 Sudoeste 41 Sudoeste 0.1 -- -- 95
2019-11-28 19:00:00 9.1 27 Sudoeste 34 Oeste 0.3 -- -- 95
2019-11-28 18:00:00 9.1 26 Oeste 37 Sudoeste 0.2 -- -- 92
2019-11-28 17:00:00 10.1 33 Sudoeste 48 Sudoeste 0 -- -- 80
2019-11-28 16:00:00 10.3 41 Sudoeste 92 Sudoeste 0 -- -- 78
2019-11-28 15:00:00 9.9 32 Sudoeste 44 Sudoeste 0 -- -- 85
2019-11-28 14:00:00 9.5 31 Sudoeste 51 Oeste 0 -- -- 86
2019-11-28 13:00:00 10 39 Sudoeste 50 Sudoeste 0 -- -- 87
2019-11-28 12:00:00 9.6 32 Sudoeste 45 Sudoeste 0 -- -- 88
2019-11-28 11:00:00 8.9 25 Sudoeste 41 Sudoeste 0 -- -- 93
2019-11-28 10:00:00 8.8 35 Sudoeste 44 Oeste 0 -- -- 94
2019-11-28 09:00:00 8.4 33 Sudoeste 49 Sudoeste 0 -- -- 94
2019-11-28 08:00:00 8.3 39 Oeste 58 Oeste 0 -- -- 94
2019-11-28 07:00:00 7.8 32 Oeste 51 Oeste 0 -- -- 96
2019-11-28 06:00:00 7.2 33 Sudoeste 40 Sudoeste 0 -- -- 97
2019-11-28 05:00:00 7.5 29 Sudoeste 46 Oeste 0 -- -- 94
2019-11-28 04:00:00 7.6 36 Oeste 52 Oeste 0 -- -- 91
2019-11-28 03:00:00 7.7 37 Oeste 53 Oeste 0 -- -- 91
2019-11-28 02:00:00 7.7 37 Oeste 51 Sudoeste 0 -- -- 90
2019-11-28 01:00:00 7.3 35 Oeste 57 Oeste 0 -- -- 90
2019-11-28 00:00:00 7.2 38 Oeste 52 Oeste 0 -- -- 90
2019-11-27 23:00:00 7.5 34 Oeste 47 Oeste 0 -- -- 91
2019-11-27 22:00:00 7.2 29 Oeste 43 Oeste 0 -- -- 91
2019-11-27 21:00:00 7.5 36 Oeste 49 Oeste 0 -- -- 85
2019-11-27 20:00:00 7.8 37 Oeste 51 Oeste 0 -- -- 84
2019-11-27 19:00:00 7.9 32 Oeste 49 Oeste 0 -- -- 85
2019-11-27 18:00:00 8.2 36 Oeste 51 Oeste 0 -- -- 86
2019-11-27 17:00:00 8 33 Oeste 53 Oeste 0 -- -- 90
2019-11-27 16:00:00 8 37 Oeste 51 Oeste 0 -- -- 86
2019-11-27 15:00:00 8.4 33 Oeste 49 Oeste 0 -- -- 82
2019-11-27 14:00:00 8.4 37 Sudoeste 48 Oeste 0 -- -- 82
2019-11-27 06:00:00 5.5 34 Sudoeste 57 Oeste 0 -- -- 88
2019-11-27 05:00:00 5.7 41 Oeste 57 Oeste 0 -- -- 85
2019-11-27 04:00:00 5.9 37 Oeste 51 Oeste 0 -- -- 87
2019-11-27 03:00:00 6.2 41 Oeste 54 Oeste 0 -- -- 91
2019-11-27 02:00:00 6.5 35 Oeste 54 Oeste 0.1 -- -- 89
2019-11-27 01:00:00 6.9 38 Oeste 56 Oeste 0 -- -- 88
2019-11-27 00:00:00 7.4 42 Oeste 60 Oeste 0 -- -- 90
2019-11-26 23:00:00 8.1 43 Oeste 62 Oeste 0 -- -- 91
2019-11-26 22:00:00 8.3 38 Oeste 72 Oeste 0.2 -- -- 92
2019-11-26 21:00:00 9.8 52 Oeste 67 Oeste 0 -- -- 83
2019-11-26 20:00:00 10.5 44 Oeste 62 Oeste 0 -- -- 75
2019-11-26 19:00:00 10.3 36 Sudoeste 51 Sudoeste 0 -- -- 80
2019-11-26 18:00:00 11.3 40 Sudoeste 66 Oeste 0 -- -- 88
2019-11-26 17:00:00 11.9 42 Sudoeste 59 Sudoeste 0.1 -- -- 89
2019-11-26 16:00:00 12.2 40 Sudoeste 60 Sudoeste 0 -- -- 88
2019-11-26 15:00:00 13.4 38 Sudoeste 57 Sudoeste 0 -- -- 83
2019-11-26 14:00:00 12.9 42 Sudoeste 58 Sudoeste 0 -- -- 86
2019-11-26 13:00:00 12.1 35 Sudoeste 49 Sudoeste 0 -- -- 90
2019-11-26 12:00:00 11.9 36 Sudoeste 109 Sudoeste 0 -- -- 89
2019-11-26 11:00:00 11.2 38 Sudoeste 48 Sudoeste 0 -- -- 90
2019-11-26 10:00:00 9.3 24 Sudoeste 33 Sudoeste 0.1 -- -- 97
2019-11-26 09:00:00 8.2 21 Sudoeste 30 Sudoeste 0.1 -- -- 97
2019-11-26 08:00:00 8 24 Sudoeste 32 Sudoeste 0 -- -- 97
2019-11-26 07:00:00 8 24 Sudoeste 33 Sudoeste 0 -- -- 97
2019-11-26 06:00:00 7.8 17 Sur 28 Sudoeste 0 -- -- 97
2019-11-26 05:00:00 7.9 23 Sudoeste 29 Sudoeste 0 -- -- 97
2019-11-26 04:00:00 7.5 19 Sudoeste 25 Sudoeste 0 -- -- 97
2019-11-26 03:00:00 7.5 16 Sudoeste 21 Sudoeste 0 -- -- 97
2019-11-26 02:00:00 7.7 19 Sudoeste 25 Sudoeste 0 -- -- 97
2019-11-26 01:00:00 7.3 17 Sudoeste 22 Sudoeste 0 -- -- 97
2019-11-26 00:00:00 6.1 15 Sudoeste 23 Sudoeste 0 -- -- 96
2019-11-25 23:00:00 5.8 18 Sudoeste 23 Sudoeste 0 -- -- 95
2019-11-25 22:00:00 7 17 Sudoeste 30 Sudoeste 0 -- -- 92
2019-11-25 21:00:00 8 23 Oeste 32 Oeste 0 -- -- 88
2019-11-25 20:00:00 8 23 Oeste 29 Sudoeste 0 -- -- 88
2019-11-25 19:00:00 8.4 20 Oeste 33 Oeste 0 -- -- 85
2019-11-25 18:00:00 9 18 Oeste 32 Oeste 0 -- -- 83
2019-11-25 17:00:00 10 25 Oeste 34 Oeste 0 -- -- 75
2019-11-25 16:00:00 10.7 24 Oeste 41 Oeste 0 -- -- 74
2019-11-25 15:00:00 11.1 27 Oeste 40 Oeste 0 -- -- 75
2019-11-25 14:00:00 11.6 28 Oeste 42 Oeste 0 -- -- 70
2019-11-25 13:00:00 11.4 31 Oeste 44 Oeste 0 -- -- 75
2019-11-25 12:00:00 11.6 32 Oeste 45 Oeste 0 -- -- 75
2019-11-25 11:00:00 11.1 31 Oeste 45 Oeste 0 -- -- 82
2019-11-25 10:00:00 9.7 24 Sudoeste 35 Oeste 0 -- -- 90
2019-11-25 09:00:00 8.6 23 Sudoeste 39 Oeste 0 -- -- 95
2019-11-25 08:00:00 6.8 19 Sudoeste 33 Sudoeste 0 -- -- 96
2019-11-25 07:00:00 7.6 24 Oeste 35 Oeste 0 -- -- 95
2019-11-25 06:00:00 8.1 25 Oeste 43 Oeste 0 -- -- 94
2019-11-25 05:00:00 8.4 28 Oeste 39 Sudoeste 0 -- -- 95
2019-11-25 04:00:00 8.1 26 Sudoeste 41 Oeste 0 -- -- 95
2019-11-25 03:00:00 7.9 23 Sudoeste 36 Sudoeste 0 -- -- 97
2019-11-25 02:00:00 7.5 24 Sudoeste 38 Sudoeste 0 -- -- 97
2019-11-25 01:00:00 7.3 28 Sudoeste 39 Sudoeste 0 -- -- 97
2019-11-25 00:00:00 6.4 26 Sudoeste 42 Sudoeste 0 -- -- 97
2019-11-24 23:00:00 6.2 30 Sudoeste 46 Sudoeste 0 -- -- 96
2019-11-24 22:00:00 5.9 27 Sudoeste 38 Sudoeste 0 -- -- 96
2019-11-24 21:00:00 6 25 Sudoeste 33 Sudoeste 0 -- -- 96
2019-11-24 20:00:00 5.8 19 Sudoeste 26 Sudoeste 0 -- -- 96
2019-11-24 19:00:00 5.7 19 Sudoeste 29 Sudoeste 0 -- -- 93
2019-11-24 18:00:00 6 22 Sudoeste 30 Sudoeste 0 -- -- 89
2019-11-24 17:00:00 6.4 19 Sudoeste 32 Oeste 0 -- -- 81
2019-11-24 16:00:00 6.6 22 Oeste 30 Oeste 0 -- -- 79
2019-11-24 15:00:00 6.6 22 Sudoeste 28 Sudoeste 0 -- -- 81
2019-11-24 14:00:00 6 24 Sudoeste 33 Oeste 0 -- -- 82
2019-11-24 13:00:00 5.8 22 Sudoeste 32 Oeste 0 -- -- 83
2019-11-24 12:00:00 6 20 Oeste 25 Oeste 0 -- -- 78
2019-11-24 11:00:00 4.6 19 Oeste 27 Oeste 0 -- -- 87
2019-11-24 10:00:00 3.3 19 Oeste 24 Oeste 0 -- -- 88
2019-11-24 09:00:00 2.1 16 Oeste 24 Oeste 0 -- -- 88
2019-11-24 08:00:00 1.7 17 Oeste 30 Oeste 0 -- -- 94
2019-11-24 07:00:00 1.6 22 Oeste 36 Oeste 0 -- -- 95
2019-11-24 06:00:00 1.3 24 Oeste 36 Oeste 0 -- -- 97
2019-11-24 05:00:00 1.9 25 Oeste 31 Oeste 0 -- -- 95
2019-11-24 04:00:00 1.5 22 Oeste 32 Oeste 0 -- -- 97
2019-11-24 03:00:00 1.7 22 Oeste 35 Oeste 0 -- -- 95
2019-11-24 02:00:00 2.2 26 Oeste 34 Oeste 0 -- -- 90
2019-11-24 01:00:00 2.5 23 Oeste 39 Oeste 0 -- -- 83
2019-11-24 00:00:00 2.7 25 Oeste 41 Oeste 0 -- -- 83
2019-11-23 23:00:00 3.8 28 Oeste 37 Oeste 0 -- -- 78
2019-11-23 22:00:00 4 31 Oeste 42 Oeste 0 -- -- 78
2019-11-23 21:00:00 3.9 30 Oeste 41 Oeste 0 -- -- 81
2019-11-23 20:00:00 4.2 30 Oeste 40 Oeste 0 -- -- 78
2019-11-23 19:00:00 4.6 26 Oeste 38 Oeste 0 -- -- 74
2019-11-23 18:00:00 5.3 26 Oeste 44 Oeste 0 -- -- 72
2019-11-23 17:00:00 7.9 29 Noroeste 43 Noroeste 0 -- -- 63
2019-11-23 16:00:00 8.2 35 Noroeste 47 Oeste 0 -- -- 60
2019-11-23 15:00:00 8.4 37 Noroeste 51 Noroeste 0 -- -- 61
2019-11-23 14:00:00 7.8 37 Noroeste 47 Noroeste 0 -- -- 61
2019-11-23 13:00:00 7.4 31 Oeste 51 Oeste 0 -- -- 67
2019-11-23 12:00:00 6.7 34 Oeste 49 Oeste 0 -- -- 73
2019-11-23 11:00:00 5.2 37 Oeste 51 Oeste 0 -- -- 76
2019-11-23 10:00:00 3.5 36 Oeste 54 Oeste 0 -- -- 78
2019-11-23 09:00:00 2.4 33 Oeste 53 Oeste 0 -- -- 81
2019-11-23 08:00:00 2.6 38 Oeste 54 Oeste 0 -- -- 80
2019-11-23 07:00:00 2.6 36 Oeste 57 Oeste 0 -- -- 86
2019-11-23 06:00:00 3 44 Oeste 60 Oeste 0 -- -- 84
2019-11-23 05:00:00 3.1 43 Oeste 62 Oeste 0 -- -- 89
2019-11-23 04:00:00 3.3 47 Oeste 68 Oeste 0 -- -- 88
2019-11-23 03:00:00 3.7 50 Oeste 73 Oeste 0 -- -- 86
2019-11-23 02:00:00 4.2 50 Oeste 70 Oeste 0 -- -- 86
2019-11-23 01:00:00 4.9 47 Oeste 66 Oeste 0 -- -- 87
2019-11-23 00:00:00 5.5 41 Oeste 59 Oeste 0 -- -- 88
2019-11-22 23:00:00 6.4 42 Oeste 59 Oeste 0 -- -- 89
2019-11-22 22:00:00 6.4 43 Sudoeste 58 Sudoeste 0 -- -- 85
2019-11-22 21:00:00 6.5 40 Sudoeste 66 Sudoeste 0 -- -- 88
2019-11-22 20:00:00 6.4 40 Sudoeste 53 Oeste 0 -- -- 85
2019-11-22 19:00:00 6.5 39 Oeste 55 Oeste 0 -- -- 81
2019-11-22 18:00:00 6.7 34 Oeste 62 Oeste 0.3 -- -- 87
2019-11-22 17:00:00 9.3 38 Oeste 64 Oeste 0 -- -- 78
2019-11-22 16:00:00 10.9 42 Oeste 59 Oeste 0.1 -- -- 84
2019-11-22 15:00:00 10.5 41 Sudoeste 69 Sudoeste 0 -- -- 85
2019-11-22 14:00:00 9.2 36 Sudoeste 55 Sudoeste 0.5 -- -- 96
2019-11-22 13:00:00 7.8 41 Sur 54 Sudoeste 1.2 -- -- 92
2019-11-22 12:00:00 7.6 35 Sur 48 Sur 0 -- -- 89
2019-11-22 11:00:00 6.8 33 Sur 52 Sur 0 -- -- 93
2019-11-22 10:00:00 5.9 36 Sur 54 Sur 0 -- -- 97
2019-11-22 09:00:00 5.2 32 Sur 46 Sur 0.6 -- -- 97
2019-11-22 08:00:00 5 32 Sur 45 Sur 1.5 -- -- 97
2019-11-22 07:00:00 4.8 27 Sur 37 Sur 0.9 -- -- 97
2019-11-22 06:00:00 4.5 16 Sur 27 Sur 0 -- -- 98
2019-11-22 05:00:00 4.2 17 Sur 26 Sudoeste 0 -- -- 98
2019-11-22 04:00:00 4.2 19 Sudoeste 27 Sudoeste 0 -- -- 98
2019-11-22 03:00:00 4 20 Sudoeste 26 Sudoeste 0.1 -- -- 98
2019-11-22 02:00:00 4.2 19 Sur 27 Sudoeste 0 -- -- 98
2019-11-22 01:00:00 4.1 18 Sudoeste 24 Sudoeste 0 -- -- 96
2019-11-22 00:00:00 3.9 15 Sur 21 Sur 0 -- -- 94
2019-11-21 23:00:00 3.8 12 Sur 19 Sur 0 -- -- 93
2019-11-21 22:00:00 2.6 11 Sudoeste 18 Sudoeste 0 -- -- 92
2019-11-21 21:00:00 2.1 12 Sudoeste 16 Sudoeste 0 -- -- 93
2019-11-21 20:00:00 2.7 13 Sudoeste 18 Sudoeste 0 -- -- 88
2019-11-21 19:00:00 3.9 9 Sudoeste 15 Oeste 0 -- -- 84
2019-11-21 18:00:00 5.1 10 Sudoeste 21 Oeste 0 -- -- 77
2019-11-21 17:00:00 7.8 17 Oeste 29 Oeste 0 -- -- 60
2019-11-21 16:00:00 8.6 21 Oeste 33 Oeste 0 -- -- 58
2019-11-21 15:00:00 8.3 25 Oeste 36 Oeste 0 -- -- 59
2019-11-21 14:00:00 7.8 24 Oeste 33 Oeste 0 -- -- 59
2019-11-21 13:00:00 7.4 20 Oeste 31 Oeste 0 -- -- 72
2019-11-21 12:00:00 6.6 19 Oeste 32 Oeste 0 -- -- 82
2019-11-21 11:00:00 5.7 21 Oeste 31 Oeste 0 -- -- 94
2019-11-21 10:00:00 4.6 20 Sudoeste 29 Sudoeste 0 -- -- 96
2019-11-21 09:00:00 4 23 Sudoeste 30 Sudoeste 0 -- -- 96
2019-11-21 08:00:00 3.5 15 Sudoeste 25 Sudoeste 0 -- -- 96
2019-11-21 07:00:00 3.6 20 Sudoeste 28 Sudoeste 0 -- -- 96
2019-11-21 06:00:00 3.2 18 Sudoeste 25 Sudoeste 0 -- -- 96
2019-11-21 05:00:00 3.1 19 Sudoeste 26 Sudoeste 0 -- -- 95
2019-11-21 04:00:00 3.1 19 Sudoeste 26 Sudoeste 0 -- -- 95
2019-11-21 03:00:00 3.2 16 Sudoeste 26 Sudoeste 0 -- -- 95
2019-11-21 02:00:00 3.6 21 Sudoeste 30 Sudoeste 0 -- -- 96
2019-11-21 01:00:00 3.6 17 Sudoeste 26 Sudoeste 0 -- -- 97
2019-11-21 00:00:00 3.4 18 Sudoeste 28 Sudoeste 0 -- -- 97
2019-11-20 23:00:00 4.2 20 Sudoeste 30 Sudoeste 0 -- -- 98
2019-11-20 22:00:00 4.4 18 Sudoeste 46 Sudoeste 0.1 -- -- 98
2019-11-20 21:00:00 4.3 18 Sudoeste 23 Sudoeste 0 -- -- 98
2019-11-20 20:00:00 4.2 14 Sudoeste 21 Sudoeste 0 -- -- 98
2019-11-20 19:00:00 3.9 15 Sudoeste 20 Sudoeste 0 -- -- 97
2019-11-20 18:00:00 4 15 Sur 22 Sudoeste 0 -- -- 95
2019-11-20 17:00:00 4.2 18 Sudoeste 26 Sudoeste 0.2 -- -- 94
2019-11-20 16:00:00 4.8 17 Sudoeste 31 Sudoeste 0.7 -- -- 94
2019-11-20 15:00:00 4.7 23 Sudoeste 33 Sudoeste 0.8 -- -- 92
2019-11-20 14:00:00 4.9 19 Sudoeste 29 Sudoeste 0.1 -- -- 94
2019-11-20 13:00:00 4.8 20 Sudoeste 28 Sur 0 -- -- 97
2019-11-20 12:00:00 4.3 19 Sudoeste 30 Sudoeste 0 -- -- 98
2019-11-20 11:00:00 3.9 22 Sudoeste 29 Sudoeste 0.1 -- -- 98
2019-11-20 10:00:00 3.1 16 Sur 22 Sur 0 -- -- 96
2019-11-20 09:00:00 2.5 12 Sur 18 Sur 0.2 -- -- 93
2019-11-20 08:00:00 2.4 5 Sudeste 12 Sudeste 0 -- -- 93
2019-11-20 07:00:00 2.5 6 Sur 10 Sur 0 -- -- 94
2019-11-20 06:00:00 2.6 5 Sudeste 12 Sur 0 -- -- 94
2019-11-20 05:00:00 2.6 10 Sur 14 Sur 0 -- -- 94
2019-11-20 04:00:00 2.2 9 Sudoeste 13 Sur 0 -- -- 93
2019-11-20 03:00:00 2.3 12 Sur 15 Sur 0 -- -- 91
2019-11-20 02:00:00 2.9 10 Sudoeste 13 Sur 0 -- -- 91
2019-11-20 01:00:00 3.1 11 Sur 14 Sudoeste 0 -- -- 91
2019-11-20 00:00:00 2.7 12 Sudoeste 13 Sudoeste 0 -- -- 92
2019-11-19 23:00:00 2.1 7 Sudoeste 13 Sudoeste 0 -- -- 92
2019-11-19 22:00:00 2.8 10 Sur 13 Sur 0 -- -- 90
2019-11-19 21:00:00 2.4 10 Sur 13 Sur 0 -- -- 91
2019-11-19 20:00:00 1.9 11 Sur 13 Sur 0 -- -- 90
2019-11-19 19:00:00 3.1 9 Sur 10 Sur 0 -- -- 89
2019-11-19 18:00:00 3.7 5 Oeste 10 Oeste 0 -- -- 84
2019-11-19 17:00:00 5.2 9 Oeste 15 Oeste 0 -- -- 77
2019-11-19 16:00:00 5.7 11 Oeste 17 Noroeste 0 -- -- 75
2019-11-19 15:00:00 5.9 12 Oeste 18 Oeste 0 -- -- 75
2019-11-19 14:00:00 5.7 9 Oeste 15 Oeste 0 -- -- 77
2019-11-19 13:00:00 5.7 8 Oeste 13 Oeste 0 -- -- 80
2019-11-19 12:00:00 4.3 7 Oeste 14 Sudoeste 0 -- -- 86
2019-11-19 11:00:00 1.4 11 Sudoeste 13 Sudoeste 0 -- -- 94
2019-11-19 10:00:00 0.2 8 Sur 11 Sur 0 -- -- 94
2019-11-19 09:00:00 0.4 5 Sudoeste 10 Sur 0 -- -- 92
2019-11-19 08:00:00 -0.8 5 Sudeste 10 Sudeste 0 -- -- 94
2019-11-19 07:00:00 -1.1 6 Sudeste 11 Sur 0 -- -- 93
2019-11-19 06:00:00 -0.7 5 Sur 11 Sur 0 -- -- 93
2019-11-19 05:00:00 0.4 10 Sur 11 Sur 0 -- -- 91
2019-11-19 04:00:00 0 9 Sur 13 Sur 0 -- -- 91
2019-11-19 03:00:00 0.1 8 Sur 12 Sur 0 -- -- 91
2019-11-19 02:00:00 0 4 Sudeste 12 Sur 0 -- -- 89
2019-11-19 01:00:00 0.4 3 Sudeste 12 Sudeste 0 -- -- 87
2019-11-19 00:00:00 0.8 6 Sudeste 11 Sudeste 0 -- -- 87
2019-11-18 23:00:00 0.8 8 Este 9 Este 0 -- -- 87
2019-11-18 22:00:00 1.1 8 Sudeste 12 Sudeste 0 -- -- 83
2019-11-18 21:00:00 2 10 Sudeste 12 Sudeste 0 -- -- 82
2019-11-18 20:00:00 2.4 8 Sudeste 14 Este 0 -- -- 80
2019-11-18 19:00:00 3.5 12 Este 16 Este 0 -- -- 78
2019-11-18 18:00:00 4.9 8 Este 19 Sudeste 0 -- -- 76
2019-11-18 17:00:00 6.3 12 Este 15 Este 0 -- -- 64
2019-11-18 16:00:00 9.4 5 Oeste 10 Oeste 0 -- -- 51
2019-11-18 15:00:00 8.7 3 Norte 12 Nordeste 0 -- -- 55
2019-11-18 14:00:00 7.1 8 Noroeste 14 Noroeste 0 -- -- 63
2019-11-18 13:00:00 6.5 4 Noroeste 10 Noroeste 0 -- -- 65
2019-11-18 12:00:00 5.3 5 Nordeste 16 Noroeste 0 -- -- 75
2019-11-18 11:00:00 2.7 14 Oeste 17 Oeste 0 -- -- 89
2019-11-18 10:00:00 0 8 Noroeste 11 Oeste 0 -- -- 95
2019-11-18 09:00:00 -0.2 5 Oeste 14 Noroeste 0 -- -- 95
2019-11-18 08:00:00 -1.6 6 Oeste 9 Oeste 0 -- -- 95
2019-11-18 07:00:00 -1.4 7 Sudoeste 10 Sudoeste 0 -- -- 95
2019-11-18 06:00:00 -1.4 5 Oeste 6 Oeste 0 -- -- 95
2019-11-18 05:00:00 -0.6 4 Oeste 8 Oeste 0 -- -- 95
2019-11-18 04:00:00 -0.6 4 Noroeste 10 Norte 0 -- -- 95
2019-11-18 03:00:00 -0.2 9 Norte 18 Noroeste 0 -- -- 95
2019-11-18 02:00:00 -0.2 10 Noroeste 21 Noroeste 0 -- -- 95
2019-11-18 01:00:00 0.4 18 Noroeste 22 Noroeste 0 -- -- 94
2019-11-18 00:00:00 0.7 17 Noroeste 23 Noroeste 0 -- -- 91
2019-11-17 23:00:00 0.8 14 Noroeste 20 Noroeste 0 -- -- 90
2019-11-17 22:00:00 1.4 16 Noroeste 31 Oeste 0 -- -- 86
2019-11-17 21:00:00 2 22 Oeste 28 Noroeste 0 -- -- 86
2019-11-17 20:00:00 2.6 16 Noroeste 28 Noroeste 0 -- -- 86
2019-11-17 19:00:00 3.7 26 Oeste 41 Noroeste 0 -- -- 78
2019-11-17 18:00:00 5.4 23 Noroeste 37 Noroeste 0 -- -- 78
2019-11-17 17:00:00 7.9 27 Noroeste 36 Oeste 0 -- -- 70
2019-11-17 16:00:00 7.2 23 Oeste 41 Oeste 0 -- -- 88
2019-11-17 15:00:00 7.9 30 Oeste 42 Oeste 0 -- -- 91
2019-11-17 14:00:00 6.5 28 Oeste 44 Oeste 0 -- -- 97
2019-11-17 13:00:00 5.2 28 Oeste 40 Oeste 0 -- -- 98
2019-11-17 12:00:00 4.8 31 Oeste 39 Oeste 0.1 -- -- 98
2019-11-17 11:00:00 4.2 26 Oeste 36 Oeste 0 -- -- 98
2019-11-17 10:00:00 3.4 27 Oeste 34 Oeste 0.1 -- -- 98
2019-11-17 09:00:00 2.5 19 Sudoeste 26 Sudoeste 0.1 -- -- 97
2019-11-17 08:00:00 2.3 17 Sudoeste 34 Oeste 0 -- -- 95
2019-11-17 07:00:00 2.7 27 Oeste 37 Oeste 0 -- -- 93
2019-11-17 06:00:00 2.1 25 Oeste 33 Oeste 0 -- -- 93
2019-11-17 05:00:00 2.1 25 Oeste 33 Oeste 0 -- -- 92
2019-11-17 04:00:00 1.9 24 Oeste 32 Oeste 0 -- -- 91
2019-11-17 03:00:00 2 24 Oeste 35 Oeste 0 -- -- 90
2019-11-17 02:00:00 1.6 29 Oeste 37 Oeste 0 -- -- 86
2019-11-17 01:00:00 1.8 21 Oeste 27 Oeste 0 -- -- 85
2019-11-17 00:00:00 1.3 15 Oeste 23 Oeste 0 -- -- 86
2019-11-16 23:00:00 0.7 18 Sudoeste 22 Oeste 0 -- -- 83
2019-11-16 22:00:00 0.9 18 Oeste 27 Oeste 0 -- -- 78
2019-11-16 21:00:00 1.5 21 Oeste 28 Oeste 0 -- -- 75
2019-11-16 20:00:00 1.7 16 Oeste 23 Oeste 0 -- -- 74
2019-11-16 19:00:00 2.4 14 Oeste 46 Noroeste 0 -- -- 78
2019-11-16 18:00:00 3 17 Noroeste 31 Noroeste 0 -- -- 70
2019-11-16 17:00:00 5.6 22 Noroeste 29 Noroeste 0 -- -- 58
2019-11-16 16:00:00 6.2 22 Noroeste 32 Oeste 0 -- -- 57
2019-11-16 15:00:00 5.6 24 Noroeste 37 Oeste 0 -- -- 62
2019-11-16 14:00:00 5.6 30 Oeste 36 Oeste 0 -- -- 70
2019-11-16 13:00:00 4.9 22 Oeste 33 Oeste 0 -- -- 75
2019-11-16 12:00:00 3.7 17 Oeste 29 Oeste 0 -- -- 79
2019-11-16 11:00:00 1.8 21 Oeste 28 Noroeste 0 -- -- 85
2019-11-16 10:00:00 -0.5 17 Oeste 22 Oeste 0 -- -- 93
2019-11-16 09:00:00 -0.7 15 Oeste 20 Oeste 0 -- -- 94
2019-11-16 08:00:00 -2 17 Oeste 21 Oeste 0 -- -- 96
2019-11-16 07:00:00 -2.4 14 Oeste 19 Noroeste 0 -- -- 96
2019-11-16 06:00:00 -2.2 12 Oeste 19 Oeste 0 -- -- 96
2019-11-16 05:00:00 -2 11 Oeste 18 Noroeste 0 -- -- 96
2019-11-16 04:00:00 -1.7 10 Noroeste 31 Noroeste 0 -- -- 96
2019-11-16 03:00:00 -1.8 12 Noroeste 17 Noroeste 0 -- -- 96
2019-11-16 02:00:00 -1.3 15 Noroeste 23 Noroeste 0 -- -- 96
2019-11-16 01:00:00 -1.2 13 Noroeste 17 Noroeste 0 -- -- 96
2019-11-16 00:00:00 -0.9 12 Noroeste 20 Noroeste 0 -- -- 95
2019-11-15 23:00:00 -0.6 15 Noroeste 19 Noroeste 0 -- -- 94
2019-11-15 22:00:00 -0.1 15 Noroeste 22 Noroeste 0 -- -- 92
2019-11-15 21:00:00 0.5 17 Noroeste 26 Noroeste 0 -- -- 89
2019-11-15 20:00:00 1.3 20 Noroeste 30 Noroeste 0 -- -- 84
2019-11-15 19:00:00 1.6 23 Noroeste 37 Noroeste 0 -- -- 81
2019-11-15 18:00:00 2.6 24 Noroeste 34 Noroeste 0 -- -- 74
2019-11-15 17:00:00 4.8 26 Noroeste 42 Noroeste 0 -- -- 64
2019-11-15 16:00:00 5.5 30 Noroeste 40 Noroeste 0 -- -- 62
2019-11-15 15:00:00 5.6 34 Noroeste 46 Noroeste 0 -- -- 62
2019-11-15 14:00:00 5.4 36 Noroeste 50 Noroeste 0 -- -- 64
2019-11-15 13:00:00 5.6 33 Noroeste 47 Noroeste 0 -- -- 67
2019-11-15 12:00:00 4.5 33 Oeste 44 Oeste 0 -- -- 74
2019-11-15 11:00:00 3.3 30 Oeste 41 Oeste 0 -- -- 81
2019-11-15 10:00:00 1.6 28 Noroeste 38 Oeste 0 -- -- 90
2019-11-15 09:00:00 -0.2 26 Oeste 32 Noroeste 0 -- -- 97
2019-11-15 08:00:00 -0.1 27 Oeste 37 Oeste 0 -- -- 97
2019-11-15 07:00:00 0.2 24 Oeste 36 Oeste 0 -- -- 96
2019-11-15 06:00:00 0.1 23 Oeste 35 Oeste 0 -- -- 96
2019-11-15 05:00:00 0 24 Noroeste 32 Noroeste 0 -- -- 97
2019-11-15 04:00:00 0.1 23 Oeste 33 Noroeste 0 -- -- 97
2019-11-15 03:00:00 0.3 24 Oeste 34 Oeste 0 -- -- 97
2019-11-15 02:00:00 0 24 Noroeste 33 Noroeste 0 -- -- 97
2019-11-15 01:00:00 0.3 24 Noroeste 38 Noroeste 0 -- -- 97
2019-11-15 00:00:00 0.9 26 Noroeste 38 Noroeste 0 -- -- 96
2019-11-14 23:00:00 0.5 23 Noroeste 32 Noroeste 0 -- -- 96
2019-11-14 22:00:00 1 23 Noroeste 31 Noroeste 0 -- -- 96
2019-11-14 21:00:00 0.7 20 Oeste 28 Oeste 0 -- -- 96
2019-11-14 20:00:00 0.8 19 Noroeste 35 Noroeste 0 -- -- 95
2019-11-14 19:00:00 1.4 19 Noroeste 39 Noroeste 0 -- -- 97
2019-11-14 18:00:00 1.7 33 Noroeste 47 Noroeste 0 -- -- 92
2019-11-14 17:00:00 2.2 33 Oeste 51 Oeste 0.1 -- -- 96
2019-11-14 16:00:00 0.8 38 Oeste 58 Oeste 2.1 -- -- 97
2019-11-14 15:00:00 0.9 45 Oeste 64 Oeste 0.2 -- -- 88
2019-11-14 14:00:00 4 43 Oeste 56 Oeste 0 -- -- 73
2019-11-14 13:00:00 5.1 34 Oeste 46 Oeste 0 -- -- 70
2019-11-14 12:00:00 3.5 33 Oeste 43 Oeste 0 -- -- 78
2019-11-14 11:00:00 2.7 32 Oeste 93 Oeste 0 -- -- 83
2019-11-14 10:00:00 2 27 Oeste 38 Oeste 0 -- -- 80
2019-11-14 09:00:00 0.9 31 Oeste 86 Oeste 0 -- -- 79
2019-11-14 08:00:00 0.4 26 Oeste 42 Oeste 0 -- -- 88
2019-11-14 07:00:00 1.7 28 Oeste 40 Oeste 0 -- -- 89
2019-11-14 06:00:00 2.6 31 Noroeste 42 Noroeste 0 -- -- 88
2019-11-14 05:00:00 3.2 31 Noroeste 61 Oeste 1.9 -- -- 91
2019-11-14 04:00:00 5.1 34 Oeste 57 Oeste 0.1 -- -- 94
2019-11-14 03:00:00 5.7 45 Oeste 61 Oeste 0 -- -- 85
2019-11-14 02:00:00 5.6 41 Sudoeste 62 Oeste 0 -- -- 83
2019-11-14 01:00:00 5.6 40 Oeste 58 Oeste 0 -- -- 82
2019-11-14 00:00:00 5.3 37 Oeste 50 Oeste 0 -- -- 80
2019-11-13 23:00:00 5.4 33 Oeste 51 Oeste 0 -- -- 83
2019-11-13 22:00:00 5.8 35 Oeste 47 Oeste 0 -- -- 84
2019-11-13 21:00:00 6.2 22 Oeste 36 Oeste 0 -- -- 85
2019-11-13 20:00:00 7.7 26 Oeste 40 Oeste 0 -- -- 82
2019-11-13 19:00:00 9.2 24 Oeste 35 Oeste 0 -- -- 77
2019-11-13 18:00:00 9.1 15 Sudoeste 26 Oeste 0 -- -- 71
2019-11-13 17:00:00 10.6 18 Oeste 30 Oeste 0 -- -- 63
2019-11-13 16:00:00 11.4 18 Oeste 26 Oeste 0 -- -- 56
2019-11-13 15:00:00 11.9 19 Oeste 25 Oeste 0 -- -- 56
2019-11-13 14:00:00 11.9 13 Oeste 21 Oeste 0 -- -- 56
2019-11-13 13:00:00 11.1 10 Oeste 17 Sudoeste 0 -- -- 59
2019-11-13 12:00:00 10.1 3 Nordeste 15 Nordeste 0 -- -- 59
2019-11-13 11:00:00 8.6 13 Nordeste 18 Nordeste 0 -- -- 72
2019-11-13 10:00:00 7.3 10 Nordeste 18 Nordeste 0 -- -- 80
2019-11-13 09:00:00 6.1 10 Nordeste 20 Nordeste 0 -- -- 87
2019-11-13 08:00:00 6.5 15 Nordeste 26 Nordeste 0 -- -- 88
2019-11-13 07:00:00 6.9 17 Nordeste 32 Norte 0 -- -- 97
2019-11-13 06:00:00 8 23 Noroeste 37 Oeste 0 -- -- 97
2019-11-13 05:00:00 8.9 30 Oeste 48 Oeste 0 -- -- 97
2019-11-13 04:00:00 8.9 28 Oeste 57 Oeste 0 -- -- 97
2019-11-13 03:00:00 8.8 40 Oeste 59 Oeste 0.8 -- -- 97
2019-11-13 02:00:00 8.6 46 Oeste 60 Oeste 0.5 -- -- 97
2019-11-13 01:00:00 8.2 41 Oeste 60 Oeste 0 -- -- 97
2019-11-13 00:00:00 7.9 40 Oeste 57 Oeste 0 -- -- 95
2019-11-12 23:00:00 7.6 39 Oeste 52 Oeste 0 -- -- 95
2019-11-12 22:00:00 6.8 34 Oeste 49 Oeste 0.1 -- -- 95
2019-11-12 21:00:00 6.4 33 Oeste 46 Oeste 0 -- -- 95
2019-11-12 20:00:00 5.9 27 Sudoeste 39 Sudoeste 0.3 -- -- 95
2019-11-12 19:00:00 5.8 24 Oeste 34 Oeste 0.7 -- -- 93
2019-11-12 18:00:00 6.3 24 Oeste 35 Oeste 0.1 -- -- 85
2019-11-12 17:00:00 7.5 21 Sudoeste 31 Oeste 0 -- -- 68
2019-11-12 16:00:00 8.3 24 Oeste 33 Oeste 0 -- -- 56
2019-11-12 15:00:00 8.6 23 Oeste 36 Oeste 0 -- -- 58
2019-11-12 14:00:00 8.6 27 Oeste 36 Oeste 0 -- -- 57
2019-11-12 13:00:00 8 26 Oeste 33 Oeste 0 -- -- 58
2019-11-12 12:00:00 6.4 23 Oeste 32 Oeste 0 -- -- 68
2019-11-12 11:00:00 5.1 17 Oeste 25 Noroeste 0 -- -- 75
2019-11-12 10:00:00 4.9 20 Oeste 27 Oeste 0 -- -- 76
2019-11-12 09:00:00 3.2 21 Oeste 28 Oeste 0 -- -- 83
2019-11-12 08:00:00 2.1 22 Oeste 28 Oeste 0 -- -- 85
2019-11-12 07:00:00 2.6 21 Oeste 27 Oeste 0 -- -- 82
2019-11-12 06:00:00 2.5 16 Oeste 23 Oeste 0 -- -- 82
2019-11-12 05:00:00 2.1 12 Oeste 18 Oeste 0 -- -- 85
2019-11-12 04:00:00 2.2 14 Oeste 17 Oeste 0 -- -- 86
2019-11-12 03:00:00 1.5 9 Oeste 14 Oeste 0 -- -- 93
2019-11-12 02:00:00 1 7 Sudoeste 10 Oeste 0 -- -- 94
2019-11-12 01:00:00 0.9 5 Oeste 7 Oeste 0 -- -- 94
2019-11-12 00:00:00 2.2 3 Sur 8 Sudeste 0 -- -- 91